Time;durP1;ratioP1;P1;durP2;ratioP2;P2;SDS_P1;SDS_P2;PMS_P1;PMS_P2;Temp;Humidity;BMP_temperature;BMP_pressure;BME280_temperature;BME280_humidity;BME280_pressure;Samples;Min_cycle;Max_cycle;Signal;HPM_P1;HPM_P2
2023/06/19 00:01:28;;;;;;;24.15;17.85;;;;;;;27.85;73.63;97625.84;4941691;28;20066;-67
2023/06/19 00:03:57;;;;;;;25.45;18.45;;;;;;;27.87;73.67;97627.13;4959572;28;20062;-67
2023/06/19 00:06:26;;;;;;;27.92;18.00;;;;;;;27.84;73.42;97627.00;4959630;28;20062;-67
2023/06/19 00:08:56;;;;;;;22.70;17.60;;;;;;;27.82;73.87;97627.31;4958748;28;20054;-68
2023/06/19 00:11:26;;;;;;;24.23;17.75;;;;;;;27.81;74.17;97620.28;4933799;28;20062;-67
2023/06/19 00:13:55;;;;;;;26.98;18.63;;;;;;;27.79;74.42;97619.84;4957494;28;20051;-67
2023/06/19 00:16:26;;;;;;;24.50;17.63;;;;;;;27.81;74.98;97623.00;4942153;28;20076;-68
2023/06/19 00:18:56;;;;;;;23.65;16.15;;;;;;;27.83;74.29;97630.84;4940999;28;20065;-68
2023/06/19 00:21:26;;;;;;;21.65;14.70;;;;;;;27.83;74.55;97630.84;4940496;28;20505;-68
2023/06/19 00:23:56;;;;;;;21.42;14.40;;;;;;;27.81;74.32;97622.19;4943837;28;20763;-68
2023/06/19 00:26:26;;;;;;;19.75;12.00;;;;;;;27.73;74.18;97621.16;4957284;28;20074;-68
2023/06/19 00:28:55;;;;;;;14.30;10.63;;;;;;;27.73;75.06;97623.06;4947371;28;20057;-68
2023/06/19 00:31:26;;;;;;;16.25;10.30;;;;;;;27.77;75.26;97624.78;4942266;28;20042;-67
2023/06/19 00:33:55;;;;;;;15.20;11.43;;;;;;;27.78;75.16;97622.88;4960458;28;20109;-68
2023/06/19 00:36:26;;;;;;;13.75;9.95;;;;;;;27.75;74.83;97621.59;4959024;28;20070;-68
2023/06/19 00:38:56;;;;;;;12.15;8.88;;;;;;;27.76;74.91;97622.41;4959939;28;20054;-68
2023/06/19 00:41:30;;;;;;;9.90;7.72;;;;;;;27.80;75.01;97621.41;4960094;28;20061;-68
2023/06/19 00:44:00;;;;;;;14.70;8.15;;;;;;;27.84;75.02;97621.56;4957383;28;20054;-68
2023/06/19 00:46:30;;;;;;;9.68;6.78;;;;;;;27.79;74.83;97617.13;4941601;28;20050;-68
2023/06/19 00:49:00;;;;;;;7.22;6.25;;;;;;;27.83;74.79;97619.97;4947798;28;20061;-67
2023/06/19 00:51:29;;;;;;;8.18;6.38;;;;;;;27.85;74.73;97612.25;4941212;28;20479;-68
2023/06/19 00:53:59;;;;;;;10.02;6.60;;;;;;;27.87;74.79;97608.09;4947477;28;20132;-68
2023/06/19 00:56:28;;;;;;;14.60;6.95;;;;;;;27.87;74.30;97613.53;4945240;28;20471;-68
2023/06/19 00:58:58;;;;;;;8.27;6.78;;;;;;;27.97;74.86;97615.06;4957710;28;20572;-68
2023/06/19 01:01:28;;;;;;;11.90;7.00;;;;;;;27.97;74.96;97615.06;4930941;28;20057;-68
2023/06/19 01:03:58;;;;;;;10.82;6.55;;;;;;;28.02;75.28;97615.63;4944524;28;20046;-67
2023/06/19 01:06:37;;;;;;;9.48;6.68;;;;;;;28.02;75.28;97609.38;4918181;28;20487;-68
2023/06/19 01:09:13;;;;;;;10.25;6.53;;;;;;;28.01;75.77;97616.00;4942655;28;20042;-68
2023/06/19 01:11:57;;;;;;;9.55;6.43;;;;;;;28.15;75.86;97619.25;4943128;28;20478;-67
2023/06/19 01:14:38;;;;;;;8.43;6.50;;;;;;;28.20;75.33;97621.78;4941181;28;20659;-68
2023/06/19 01:17:09;;;;;;;9.98;7.50;;;;;;;28.12;74.67;97611.75;4930579;28;20055;-68
2023/06/19 01:19:39;;;;;;;12.40;6.90;;;;;;;28.22;74.73;97621.44;4940058;28;21769;-68
2023/06/19 01:22:08;;;;;;;12.88;7.35;;;;;;;28.24;74.71;97619.16;4917621;28;20046;-68
2023/06/19 01:24:37;;;;;;;10.27;6.43;;;;;;;28.36;74.30;97630.94;4942805;28;20047;-68
2023/06/19 01:27:08;;;;;;;9.00;6.75;;;;;;;28.37;73.91;97627.06;4920630;28;20064;-68
2023/06/19 01:29:38;;;;;;;12.02;7.20;;;;;;;28.41;72.91;97629.94;4941407;28;20514;-67
2023/06/19 01:32:19;;;;;;;12.95;8.07;;;;;;;28.29;72.43;97627.13;4929993;28;20148;-67
2023/06/19 01:34:50;;;;;;;9.02;7.13;;;;;;;28.51;73.32;97624.06;4928140;28;20057;-67
2023/06/19 01:37:27;;;;;;;9.50;6.53;;;;;;;28.58;73.44;97630.56;4941522;28;20059;-68
2023/06/19 01:39:58;;;;;;;10.68;6.70;;;;;;;28.72;73.03;97634.97;4959301;28;20784;-68
2023/06/19 01:42:32;;;;;;;11.07;6.63;;;;;;;28.74;72.31;97629.94;4958934;28;20053;-69
2023/06/19 01:45:04;;;;;;;7.32;5.90;;;;;;;28.68;70.54;97631.28;4947239;28;20058;-68
2023/06/19 01:47:34;;;;;;;8.88;5.95;;;;;;;28.59;70.34;97640.31;4956347;28;20054;-67
2023/06/19 01:50:04;;;;;;;7.22;5.05;;;;;;;28.98;71.10;97649.09;4947142;28;20082;-68
2023/06/19 01:52:34;;;;;;;6.97;5.97;;;;;;;29.36;69.67;97657.00;4956085;28;20050;-68
2023/06/19 01:55:03;;;;;;;9.05;6.28;;;;;;;29.57;68.11;97659.63;4938145;28;20053;-68
2023/06/19 01:57:36;;;;;;;11.75;7.32;;;;;;;29.54;68.17;97644.75;4945299;28;20437;-68
2023/06/19 02:00:10;;;;;;;11.98;6.60;;;;;;;29.76;67.35;97647.00;4940358;28;20046;-67
2023/06/19 02:02:42;;;;;;;6.40;5.20;;;;;;;30.39;66.41;97658.25;4932823;28;20050;-67
2023/06/19 02:05:14;;;;;;;8.13;6.07;;;;;;;30.26;65.41;97659.44;4940102;28;20105;-68
2023/06/19 02:07:43;;;;;;;7.45;5.65;;;;;;;30.65;64.91;97663.31;4933211;28;20058;-67
2023/06/19 02:10:16;;;;;;;10.73;6.10;;;;;;;31.14;63.18;97672.06;4934693;28;20641;-67
2023/06/19 02:12:46;;;;;;;7.93;5.25;;;;;;;31.42;61.92;97675.53;4960658;28;20078;-68
2023/06/19 02:15:15;;;;;;;8.35;5.60;;;;;;;31.58;61.96;97675.56;4950054;28;20061;-67
2023/06/19 02:17:45;;;;;;;9.98;5.22;;;;;;;31.80;61.26;97683.13;4961943;28;20051;-67
2023/06/19 02:20:15;;;;;;;9.00;5.20;;;;;;;31.88;61.59;97684.88;4961246;28;20046;-67
2023/06/19 02:22:44;;;;;;;8.95;5.20;;;;;;;31.98;61.25;97681.59;4952208;28;20121;-67
2023/06/19 02:25:13;;;;;;;5.22;4.72;;;;;;;31.66;60.21;97688.25;4949790;28;20113;-67
2023/06/19 02:27:43;;;;;;;5.20;4.30;;;;;;;32.01;60.44;97693.75;4961721;28;20054;-67
2023/06/19 02:30:13;;;;;;;4.93;4.32;;;;;;;31.83;59.70;97698.03;4950681;28;20051;-68
2023/06/19 02:32:42;;;;;;;8.52;4.20;;;;;;;31.84;59.71;97694.94;4933564;28;20192;-67
2023/06/19 02:35:14;;;;;;;7.95;3.83;;;;;;;32.25;58.75;97709.22;4960319;28;20356;-68
2023/06/19 02:37:46;;;;;;;5.22;4.13;;;;;;;32.47;58.46;97717.53;4943697;28;20070;-68
2023/06/19 02:40:16;;;;;;;8.50;4.40;;;;;;;32.65;57.22;97714.38;4946696;28;20061;-68
2023/06/19 02:42:45;;;;;;;5.65;3.88;;;;;;;32.84;57.11;97728.88;4939019;28;20081;-67
2023/06/19 02:45:16;;;;;;;7.65;4.38;;;;;;;33.10;56.94;97732.91;4948536;28;20110;-68
2023/06/19 02:47:48;;;;;;;;;;;;;;;33.44;56.52;97734.72;4942196;28;20063;-67
2023/06/19 02:50:17;;;;;;;7.50;4.15;;;;;;;33.62;54.71;97735.03;4940320;28;19931;-68
2023/06/19 02:52:47;;;;;;;4.03;3.50;;;;;;;33.77;56.48;97729.44;4946199;28;20137;-67
2023/06/19 02:55:16;;;;;;;7.53;4.22;;;;;;;33.55;55.43;97732.94;4955623;28;20051;-67
2023/06/19 02:57:46;;;;;;;7.00;4.30;;;;;;;33.79;55.86;97731.81;4941633;28;20214;-68
2023/06/19 03:00:15;;;;;;;6.45;4.13;;;;;;;34.16;53.17;97734.75;4936320;28;20550;-68
2023/06/19 03:02:48;;;;;;;7.90;5.05;;;;;;;34.38;53.97;97730.38;4945968;28;20051;-68
2023/06/19 03:05:17;;;;;;;4.30;3.85;;;;;;;34.33;54.66;97719.69;4951685;28;20065;-69
2023/06/19 03:07:46;;;;;;;6.68;4.30;;;;;;;34.03;53.38;97736.13;4940250;28;20059;-68
2023/06/19 03:10:16;;;;;;;6.80;4.05;;;;;;;34.35;54.46;97726.38;4947229;28;20043;-69
2023/06/19 03:12:46;;;;;;;6.55;3.97;;;;;;;33.53;55.08;97720.75;4940844;28;20071;-67
2023/06/19 03:15:16;;;;;;;6.43;4.63;;;;;;;33.02;55.12;97722.97;4946032;28;20047;-67
2023/06/19 03:17:49;;;;;;;6.78;4.13;;;;;;;33.09;54.62;97712.91;4939496;28;20078;-67
2023/06/19 03:20:20;;;;;;;8.70;4.47;;;;;;;33.11;56.96;97716.06;4927762;28;20801;-67
2023/06/19 03:22:57;;;;;;;6.50;4.15;;;;;;;33.26;54.35;97720.69;4941068;28;20150;-68
2023/06/19 03:25:34;;;;;;;5.57;3.75;;;;;;;33.52;54.49;97710.94;4939654;28;20130;-68
2023/06/19 03:28:04;;;;;;;6.28;4.32;;;;;;;33.26;54.75;97709.72;4938351;28;20051;-68
2023/06/19 03:30:35;;;;;;;5.70;3.92;;;;;;;33.67;54.86;97705.34;4955309;28;20054;-68
2023/06/19 03:33:05;;;;;;;7.32;4.20;;;;;;;33.64;54.20;97705.22;4937446;28;20043;-68
2023/06/19 03:35:43;;;;;;;9.38;4.10;;;;;;;33.90;53.07;97699.03;4941200;28;20075;-68
2023/06/19 03:38:24;;;;;;;7.90;5.03;;;;;;;34.06;53.16;97710.63;4954176;28;20050;-68
2023/06/19 03:40:54;;;;;;;5.85;4.50;;;;;;;34.32;52.77;97707.91;4929614;28;20043;-67
2023/06/19 03:43:24;;;;;;;8.82;4.10;;;;;;;34.43;52.47;97714.34;4928853;28;20054;-68
2023/06/19 03:45:53;;;;;;;10.27;4.50;;;;;;;34.43;51.04;97711.59;4940442;28;20055;-68
2023/06/19 03:48:23;;;;;;;14.00;6.03;;;;;;;34.55;53.10;97716.06;4939052;28;20053;-68
2023/06/19 03:50:52;;;;;;;10.88;4.90;;;;;;;34.38;52.95;97719.38;4940030;28;20078;-68
2023/06/19 03:53:22;;;;;;;10.02;4.28;;;;;;;34.64;52.11;97720.09;4955781;28;20582;-69
2023/06/19 03:55:51;;;;;;;7.68;4.38;;;;;;;34.80;53.03;97719.91;4939409;28;20070;-69
2023/06/19 03:58:23;;;;;;;6.75;4.20;;;;;;;34.09;51.61;97716.19;4939187;28;20051;-69
2023/06/19 04:00:52;;;;;;;8.90;4.38;;;;;;;34.75;53.33;97722.19;4930065;28;20137;-68
2023/06/19 04:03:23;;;;;;;5.85;4.47;;;;;;;34.87;51.97;97716.47;4940657;28;20200;-69
2023/06/19 04:05:52;;;;;;;6.50;4.00;;;;;;;35.12;50.06;97721.06;4941051;28;20065;-70
2023/06/19 04:08:22;;;;;;;8.10;4.30;;;;;;;34.82;52.83;97717.59;4914929;28;20078;-69
2023/06/19 04:10:51;;;;;;;7.20;4.47;;;;;;;34.53;53.11;97719.16;4930471;28;20059;-70
2023/06/19 04:13:21;;;;;;;7.95;4.82;;;;;;;34.60;51.50;97712.97;4928333;28;20491;-72
2023/06/19 04:15:52;;;;;;;10.75;4.78;;;;;;;34.06;51.65;97718.88;4929791;28;20051;-67
2023/06/19 04:18:21;;;;;;;9.48;4.38;;;;;;;34.38;51.89;97716.63;4951776;28;20047;-69
2023/06/19 04:20:59;;;;;;;8.23;4.50;;;;;;;34.52;53.79;97714.81;4937903;28;20070;-70
2023/06/19 04:23:28;;;;;;;9.77;5.18;;;;;;;34.89;54.79;97711.38;4919870;28;20047;-69
2023/06/19 04:25:58;;;;;;;8.27;4.93;;;;;;;34.97;51.67;97713.03;4933102;28;20055;-69
2023/06/19 04:28:27;;;;;;;9.48;5.38;;;;;;;34.92;52.23;97722.41;4941669;28;20138;-68
2023/06/19 04:30:59;;;;;;;9.57;4.90;;;;;;;34.65;52.59;97726.41;4937178;28;20055;-69
2023/06/19 04:33:29;;;;;;;7.30;4.78;;;;;;;34.79;53.16;97726.59;4936758;28;20110;-68
2023/06/19 04:35:58;;;;;;;10.57;4.70;;;;;;;35.10;51.24;97726.16;4935010;28;20051;-69
2023/06/19 04:38:28;;;;;;;9.20;5.57;;;;;;;35.26;51.11;97723.22;4926363;28;20051;-69
2023/06/19 04:40:57;;;;;;;13.48;5.32;;;;;;;35.11;51.60;97721.44;4938451;28;20645;-69
2023/06/19 04:43:27;;;;;;;8.77;5.07;;;;;;;35.41;52.53;97722.16;4938102;28;20775;-68
2023/06/19 04:45:56;;;;;;;31.27;6.97;;;;;;;35.51;50.85;97715.97;4936875;28;20055;-70
2023/06/19 04:48:26;;;;;;;8.98;5.07;;;;;;;35.43;48.72;97714.31;4921100;28;20059;-71
2023/06/19 04:50:56;;;;;;;5.75;4.78;;;;;;;34.99;49.53;97707.94;4938208;28;20066;-69
2023/06/19 04:53:26;;;;;;;10.63;5.22;;;;;;;35.45;51.92;97695.44;4937268;28;20146;-69
2023/06/19 04:55:55;;;;;;;11.25;5.55;;;;;;;35.81;48.22;97693.78;4937905;28;20055;-68
2023/06/19 04:58:27;;;;;;;15.70;5.97;;;;;;;36.32;49.09;97687.44;4937238;28;20121;-67
2023/06/19 05:00:56;;;;;;;19.42;6.47;;;;;;;35.50;49.66;97692.34;4937238;28;20051;-68
2023/06/19 05:03:26;;;;;;;10.75;6.15;;;;;;;35.82;50.83;97683.56;4936937;28;20047;-70
2023/06/19 05:05:55;;;;;;;10.98;5.80;;;;;;;35.37;49.30;97687.50;4938258;28;20055;-73
2023/06/19 05:08:25;;;;;;;13.45;6.57;;;;;;;35.55;48.97;97683.72;4943523;28;20051;-73
2023/06/19 05:10:56;;;;;;;12.95;6.05;;;;;;;35.46;48.76;97694.28;4938665;28;20118;-75
2023/06/19 05:13:26;;;;;;;12.25;5.53;;;;;;;35.90;47.43;97682.44;4913162;28;20724;-71
2023/06/19 05:15:56;;;;;;;16.45;6.78;;;;;;;36.24;49.63;97680.31;4936433;28;20066;-73
2023/06/19 05:18:25;;;;;;;18.20;7.65;;;;;;;36.22;50.39;97690.94;4933990;28;20055;-71
2023/06/19 05:20:56;;;;;;;10.07;4.85;;;;;;;36.55;48.01;97689.91;4936530;28;20055;-77
2023/06/19 05:23:25;;;;;;;19.98;5.63;;;;;;;36.88;46.78;97689.66;4936959;28;20051;-74
2023/06/19 05:25:55;;;;;;;8.95;4.65;;;;;;;36.51;45.76;97692.66;4937994;28;20086;-76
2023/06/19 05:28:27;;;;;;;19.35;5.63;;;;;;;36.24;46.17;97678.34;4935847;28;20044;-75
2023/06/19 05:30:57;;;;;;;9.50;5.20;;;;;;;36.82;47.27;97678.19;4912576;28;20063;-70
2023/06/19 05:33:26;;;;;;;11.90;5.47;;;;;;;36.54;47.39;97682.81;4926706;28;20055;-73
2023/06/19 05:35:56;;;;;;;11.40;5.13;;;;;;;37.03;46.64;97685.75;4938256;28;20051;-78
2023/06/19 05:38:28;;;;;;;9.40;4.93;;;;;;;37.04;44.47;97679.06;4935202;28;20794;-78
2023/06/19 05:40:58;;;;;;;15.05;5.13;;;;;;;36.82;43.37;97677.44;4932611;28;20057;-79
2023/06/19 05:43:28;;;;;;;12.93;5.60;;;;;;;36.87;46.63;97675.06;4929077;28;20058;-75
2023/06/19 05:45:59;;;;;;;10.88;5.70;;;;;;;37.00;45.35;97672.72;4940276;28;20195;-73
2023/06/19 05:48:28;;;;;;;8.90;5.65;;;;;;;37.18;46.80;97658.97;4944305;28;20187;-74
2023/06/19 05:50:57;;;;;;;13.27;5.65;;;;;;;36.68;45.18;97667.13;4942915;28;20563;-76
2023/06/19 05:53:27;;;;;;;7.40;4.78;;;;;;;36.38;46.02;97669.34;4941887;28;20058;-74
2023/06/19 05:55:58;;;;;;;9.57;5.65;;;;;;;36.59;46.49;97674.97;4941080;28;20061;-74
2023/06/19 05:58:27;;;;;;;12.98;5.60;;;;;;;36.61;49.07;97666.28;4917440;28;20047;-74
2023/06/19 06:00:59;;;;;;;9.60;4.97;;;;;;;36.59;47.88;97677.75;4941962;28;20062;-74
2023/06/19 06:03:30;;;;;;;8.20;5.68;;;;;;;36.99;49.46;97679.44;4928285;28;20058;-75
2023/06/19 06:06:02;;;;;;;9.10;5.10;;;;;;;36.62;46.68;97684.44;4938029;28;20066;-71
2023/06/19 06:08:32;;;;;;;9.38;5.97;;;;;;;36.81;46.57;97682.16;4941949;28;20516;-76
2023/06/19 06:11:02;;;;;;;8.95;5.38;;;;;;;36.59;46.53;97685.19;4940485;28;20058;-71
2023/06/19 06:13:31;;;;;;;8.73;5.75;;;;;;;36.50;45.15;97679.25;4936608;28;20070;-72
2023/06/19 06:16:01;;;;;;;9.65;4.82;;;;;;;36.87;48.19;97680.56;4939298;28;20093;-74
2023/06/19 06:18:30;;;;;;;8.48;5.53;;;;;;;36.97;47.68;97676.25;4940417;28;20216;-75
2023/06/19 06:21:00;;;;;;;11.30;5.88;;;;;;;36.77;47.65;97675.84;4947541;28;20058;-71
2023/06/19 06:23:29;;;;;;;9.43;5.40;;;;;;;36.48;47.35;97669.38;4932232;28;20055;-76
2023/06/19 06:26:02;;;;;;;11.80;5.20;;;;;;;36.43;48.73;97672.50;4928243;28;20044;-71
2023/06/19 06:28:31;;;;;;;9.55;5.22;;;;;;;36.72;48.36;97667.94;4940256;28;20552;-77
2023/06/19 06:31:01;;;;;;;13.27;5.50;;;;;;;36.64;48.01;97660.81;4938674;28;20055;-73
2023/06/19 06:33:31;;;;;;;7.13;4.65;;;;;;;36.33;47.12;97658.69;4939378;28;20047;-73
2023/06/19 06:36:00;;;;;;;8.65;5.57;;;;;;;36.62;47.08;97660.41;4940171;28;20047;-73
2023/06/19 06:38:30;;;;;;;14.38;5.75;;;;;;;36.77;47.97;97653.75;4938803;28;20794;-73
2023/06/19 06:40:59;;;;;;;10.10;5.18;;;;;;;36.94;49.27;97646.69;4921726;28;20051;-72
2023/06/19 06:43:29;;;;;;;15.93;5.10;;;;;;;37.05;52.34;97643.91;4920958;28;20059;-75
2023/06/19 06:45:58;;;;;;;13.43;6.47;;;;;;;37.05;49.43;97636.44;4937449;28;20051;-73
2023/06/19 06:48:30;;;;;;;13.07;5.22;;;;;;;37.11;47.80;97647.91;4956704;28;20133;-72
2023/06/19 06:51:01;;;;;;;9.88;5.35;;;;;;;37.15;47.41;97651.47;4959092;28;20137;-72
2023/06/19 06:53:33;;;;;;;13.25;5.40;;;;;;;36.98;47.61;97644.72;4957194;28;20065;-73
2023/06/19 06:56:02;;;;;;;15.35;5.93;;;;;;;37.21;46.73;97647.16;4916275;28;20058;-73
2023/06/19 06:58:32;;;;;;;13.93;5.38;;;;;;;36.92;46.18;97640.75;4944090;28;20058;-74
2023/06/19 07:01:01;;;;;;;12.05;5.57;;;;;;;36.94;46.12;97629.31;4943541;28;20565;-74
2023/06/19 07:03:32;;;;;;;11.95;6.88;;;;;;;36.99;47.18;97626.19;4958778;28;20054;-73
2023/06/19 07:06:03;;;;;;;18.63;7.57;;;;;;;36.79;46.50;97623.78;4958455;28;20054;-74
2023/06/19 07:08:32;;;;;;;19.27;7.35;;;;;;;36.53;47.04;97628.78;4933893;28;20050;-74
2023/06/19 07:11:01;;;;;;;14.45;6.55;;;;;;;37.02;50.23;97631.69;4946712;28;20057;-73
2023/06/19 07:13:31;;;;;;;12.43;6.90;;;;;;;37.00;47.97;97620.25;4942700;28;20059;-72
2023/06/19 07:16:01;;;;;;;12.05;6.88;;;;;;;37.07;47.55;97617.53;4943156;28;20056;-74
2023/06/19 07:18:30;;;;;;;13.98;6.40;;;;;;;37.10;47.21;97616.75;4959793;28;20042;-73
2023/06/19 07:20:59;;;;;;;16.45;7.55;;;;;;;37.05;48.48;97606.06;4942878;28;20251;-75
2023/06/19 07:23:29;;;;;;;14.48;7.00;;;;;;;36.90;49.09;97612.75;4958288;28;20482;-72
2023/06/19 07:25:58;;;;;;;15.80;7.22;;;;;;;36.62;47.79;97605.22;4959453;28;20058;-72
2023/06/19 07:28:28;;;;;;;16.10;7.13;;;;;;;36.77;48.88;97597.75;4942126;28;20154;-73
2023/06/19 07:30:57;;;;;;;12.80;6.82;;;;;;;36.94;47.84;97590.69;4943211;28;20054;-74
2023/06/19 07:33:27;;;;;;;24.33;8.07;;;;;;;37.22;50.00;97587.97;4959347;28;20063;-73
2023/06/19 07:35:57;;;;;;;11.73;6.85;;;;;;;37.24;47.65;97583.63;4942021;28;20475;-75
2023/06/19 07:38:26;;;;;;;15.05;7.68;;;;;;;37.32;47.59;97584.38;4941290;28;20665;-73
2023/06/19 07:40:55;;;;;;;14.25;6.80;;;;;;;37.11;47.08;97589.91;4931191;28;20140;-74
2023/06/19 07:43:25;;;;;;;12.73;6.78;;;;;;;37.29;50.06;97574.13;4946362;28;20065;-73
2023/06/19 07:45:54;;;;;;;17.83;7.50;;;;;;;37.32;46.66;97578.88;4959638;28;20054;-74
2023/06/19 07:48:24;;;;;;;28.13;8.45;;;;;;;37.00;45.81;97575.31;4941803;28;20058;-73
2023/06/19 07:50:56;;;;;;;24.05;8.65;;;;;;;37.01;46.68;97574.91;4930556;28;20058;-74
2023/06/19 07:53:26;;;;;;;14.93;7.55;;;;;;;37.07;48.16;97567.03;4957275;28;20056;-72
2023/06/19 07:55:55;;;;;;;19.33;7.90;;;;;;;37.07;47.50;97553.25;4939467;28;20721;-74
2023/06/19 07:58:25;;;;;;;23.42;7.63;;;;;;;37.36;49.13;97557.53;4957972;28;20579;-73
2023/06/19 08:00:54;;;;;;;14.50;6.97;;;;;;;37.39;46.51;97542.16;4958890;28;20766;-73
2023/06/19 08:03:24;;;;;;;18.35;8.60;;;;;;;37.11;48.45;97537.44;4928797;28;20046;-74
2023/06/19 08:05:53;;;;;;;14.23;7.43;;;;;;;36.93;47.68;97540.19;4945742;28;20046;-72
2023/06/19 08:08:23;;;;;;;16.65;8.07;;;;;;;36.81;48.32;97532.31;4958212;28;20054;-68
2023/06/19 08:10:52;;;;;;;25.55;8.85;;;;;;;36.81;46.36;97533.09;4928897;28;20050;-77
2023/06/19 08:13:22;;;;;;;21.00;8.80;;;;;;;36.90;46.86;97527.19;4928962;28;20055;-69
2023/06/19 08:15:51;;;;;;;13.70;7.65;;;;;;;37.18;48.18;97518.91;4958558;28;20162;-70
2023/06/19 08:18:21;;;;;;;29.30;9.23;;;;;;;37.15;46.47;97525.22;4947890;28;21596;-72
2023/06/19 08:20:51;;;;;;;18.58;8.95;;;;;;;37.04;47.32;97518.91;4941660;28;20066;-72
2023/06/19 08:23:20;;;;;;;18.45;9.18;;;;;;;37.01;47.96;97519.66;4946795;28;20159;-71
2023/06/19 08:25:51;;;;;;;26.13;8.77;;;;;;;37.00;47.52;97506.28;4958297;28;20055;-70
2023/06/19 08:28:20;;;;;;;13.88;8.63;;;;;;;37.14;49.57;97509.81;4957824;28;20534;-72
2023/06/19 08:30:50;;;;;;;17.27;8.65;;;;;;;37.19;50.58;97512.19;4956477;28;20046;-69
2023/06/19 08:33:20;;;;;;;20.52;9.25;;;;;;;36.84;46.47;97492.88;4924537;28;20423;-73
2023/06/19 08:35:49;;;;;;;26.95;8.40;;;;;;;36.93;48.24;97493.25;4940858;28;20054;-72
2023/06/19 08:38:19;;;;;;;22.27;8.57;;;;;;;36.78;47.19;97491.69;4946147;28;20157;-68
2023/06/19 08:40:50;;;;;;;20.40;8.43;;;;;;;36.83;49.67;97494.03;4946584;28;20054;-66
2023/06/19 08:43:20;;;;;;;25.98;8.48;;;;;;;36.74;49.07;97482.59;4958617;28;20097;-67
2023/06/19 08:46:11;;;;;;;19.60;8.55;;;;;;;36.56;49.41;97476.28;4957917;28;20138;-67
2023/06/19 08:48:42;;;;;;;26.48;9.55;;;;;;;36.51;50.89;97479.44;4958479;28;20096;-70
2023/06/19 08:51:13;;;;;;;31.48;9.98;;;;;;;36.40;47.32;97480.19;4957969;28;20061;-69
2023/06/19 08:53:50;;;;;;;17.70;8.53;;;;;;;36.30;48.88;97480.16;4958561;28;20057;-71
2023/06/19 08:56:20;;;;;;;22.92;7.95;;;;;;;36.30;49.52;97469.94;4957282;28;20066;-70
2023/06/19 08:58:49;;;;;;;24.63;9.25;;;;;;;36.10;48.96;97471.44;4941454;28;20101;-72
2023/06/19 09:01:20;;;;;;;15.10;7.75;;;;;;;36.28;52.22;97469.56;4957706;28;20831;-72
2023/06/19 09:03:52;;;;;;;23.42;8.35;;;;;;;36.39;52.88;97467.56;4958622;28;20238;-70
2023/06/19 09:06:21;;;;;;;21.63;7.80;;;;;;;36.43;48.34;97460.09;4928674;28;20064;-71
2023/06/19 09:09:00;;;;;;;30.33;9.07;;;;;;;36.54;49.16;97456.56;4941122;28;20050;-72
2023/06/19 09:11:31;;;;;;;21.75;7.43;;;;;;;36.62;48.61;97447.91;4940810;28;20054;-71
2023/06/19 09:14:00;;;;;;;25.20;7.95;;;;;;;36.67;47.97;97443.97;4955770;28;20046;-72
2023/06/19 09:16:41;;;;;;;23.65;8.60;;;;;;;36.75;47.82;97440.81;4931021;28;20530;-72
2023/06/19 09:19:10;;;;;;;30.15;7.90;;;;;;;36.77;47.90;97434.91;4949837;28;20051;-69
2023/06/19 09:21:40;;;;;;;18.20;7.72;;;;;;;36.81;46.47;97435.69;4935169;28;20109;-70
2023/06/19 09:24:10;;;;;;;29.25;7.35;;;;;;;36.82;47.24;97431.75;4932343;28;20058;-70
2023/06/19 09:26:39;;;;;;;21.42;7.45;;;;;;;36.85;46.79;97431.75;4960262;28;20057;-72
2023/06/19 09:29:16;;;;;;;26.40;7.32;;;;;;;36.84;47.84;97421.09;4941399;28;20894;-70
2023/06/19 09:31:49;;;;;;;28.23;7.78;;;;;;;36.70;47.11;97419.13;4943076;28;20193;-70
2023/06/19 09:34:19;;;;;;;27.13;8.23;;;;;;;36.63;47.31;97416.41;4942213;28;20050;-72
2023/06/19 09:36:51;;;;;;;24.20;7.57;;;;;;;36.57;47.97;97417.13;4948539;28;20055;-70
2023/06/19 09:39:23;;;;;;;20.92;7.85;;;;;;;36.45;47.94;97412.81;4931793;28;20060;-71
2023/06/19 09:41:54;;;;;;;19.92;7.15;;;;;;;36.56;48.68;97410.81;4941943;28;20064;-71
2023/06/19 09:44:24;;;;;;;19.90;7.95;;;;;;;36.59;48.88;97409.28;4900387;28;20046;-72
2023/06/19 09:46:58;;;;;;;17.73;7.90;;;;;;;36.55;49.41;97398.25;4943788;28;20504;-72
2023/06/19 09:49:32;;;;;;;26.92;8.98;;;;;;;36.48;48.17;97399.00;4941101;28;20055;-71
2023/06/19 09:52:02;;;;;;;25.20;9.10;;;;;;;36.38;48.22;97390.75;4920502;28;20039;-72
2023/06/19 09:54:32;;;;;;;19.88;8.00;;;;;;;36.46;50.48;97395.88;4915571;28;20055;-70
2023/06/19 09:57:02;;;;;;;20.50;8.25;;;;;;;36.44;50.56;97400.19;4939924;28;20047;-72
2023/06/19 09:59:32;;;;;;;23.60;8.65;;;;;;;36.42;48.67;97389.56;4941807;28;20055;-71
2023/06/19 10:02:05;;;;;;;16.50;7.60;;;;;;;36.41;50.54;97389.97;4940927;28;20312;-70
2023/06/19 10:04:46;;;;;;;31.13;9.50;;;;;;;36.27;49.09;97393.50;4942916;28;20087;-72
2023/06/19 10:07:17;;;;;;;20.35;8.95;;;;;;;36.22;49.70;97391.13;4931128;28;20047;-71
2023/06/19 10:10:06;;;;;;;20.02;8.02;;;;;;;36.21;49.06;97384.03;4942209;28;20070;-71
2023/06/19 10:12:36;;;;;;;15.85;7.82;;;;;;;36.19;49.39;97385.63;4945122;28;20054;-71
2023/06/19 10:15:15;;;;;;;16.63;8.88;;;;;;;36.06;48.29;97379.66;4930276;28;20066;-72
2023/06/19 10:17:50;;;;;;;21.42;9.15;;;;;;;36.02;48.25;97374.16;4929531;28;20494;-72
2023/06/19 10:20:25;;;;;;;24.23;9.48;;;;;;;36.01;48.89;97380.84;4941259;28;20130;-71
2023/06/19 10:22:59;;;;;;;16.27;8.52;;;;;;;35.98;48.82;97367.81;4942517;28;20132;-72
2023/06/19 10:25:34;;;;;;;24.45;9.27;;;;;;;35.92;50.50;97361.16;4939778;28;20063;-72
2023/06/19 10:28:16;;;;;;;20.20;8.68;;;;;;;35.94;49.74;97360.72;4954911;28;20051;-73
2023/06/19 10:30:52;;;;;;;18.70;9.10;;;;;;;36.02;49.30;97359.59;4940944;28;20059;-71
2023/06/19 10:33:25;;;;;;;21.77;8.85;;;;;;;36.09;49.56;97358.78;4940815;28;20654;-71
2023/06/19 10:35:55;;;;;;;23.30;9.52;;;;;;;36.05;50.02;97358.78;4941786;28;20055;-69
2023/06/19 10:38:24;;;;;;;20.48;8.75;;;;;;;36.03;51.16;97345.38;4940430;28;20063;-68
2023/06/19 10:40:53;;;;;;;19.63;8.90;;;;;;;36.04;51.53;97349.72;4940602;28;20047;-68
2023/06/19 10:43:27;;;;;;;23.38;9.02;;;;;;;36.02;48.53;97354.88;4928443;28;20114;-67
2023/06/19 10:45:58;;;;;;;21.08;9.00;;;;;;;36.05;47.20;97350.53;4609325;28;9999874;-65
2023/06/19 10:48:29;;;;;;;16.40;9.60;;;;;;;36.10;49.42;97350.13;4581096;28;9999715;-67
2023/06/19 10:50:59;;;;;;;21.60;9.43;;;;;;;36.12;47.45;97347.78;4939554;28;20479;-66
2023/06/19 10:53:33;;;;;;;27.25;9.27;;;;;;;36.14;46.98;97345.44;4938076;28;20431;-68
2023/06/19 10:56:04;;;;;;;29.35;9.63;;;;;;;36.16;47.46;97339.53;4938558;28;20134;-68
2023/06/19 10:58:33;;;;;;;25.95;10.07;;;;;;;36.13;46.45;97334.78;4939288;28;20047;-67
2023/06/19 11:01:03;;;;;;;20.40;9.15;;;;;;;36.10;46.36;97335.56;4938895;28;20145;-69
2023/06/19 11:03:34;;;;;;;21.33;10.07;;;;;;;36.11;46.24;97326.91;4939393;28;20066;-75
2023/06/19 11:06:04;;;;;;;22.55;9.65;;;;;;;36.07;47.21;97323.34;4938925;28;20054;-73
2023/06/19 11:08:34;;;;;;;15.52;9.50;;;;;;;36.04;47.89;97324.91;4938513;28;20095;-74
2023/06/19 11:11:04;;;;;;;26.92;8.88;;;;;;;36.04;45.91;97313.09;4937444;28;20597;-72
2023/06/19 11:13:33;;;;;;;15.88;9.38;;;;;;;36.00;48.11;97318.63;4941848;28;20842;-69
2023/06/19 11:16:04;;;;;;;15.57;8.98;;;;;;;36.01;48.15;97314.69;4936235;28;20384;-69
2023/06/19 11:18:34;;;;;;;25.80;8.85;;;;;;;35.98;46.69;97320.22;4926598;28;20055;-66
2023/06/19 11:21:04;;;;;;;18.42;9.02;;;;;;;35.91;48.22;97315.47;4926084;28;20043;-70
2023/06/19 11:23:33;;;;;;;19.67;9.25;;;;;;;35.93;46.67;97315.06;4938415;28;20047;-67
2023/06/19 11:26:07;;;;;;;22.27;9.75;;;;;;;35.90;46.17;97308.38;4932552;28;20062;-66
2023/06/19 11:28:36;;;;;;;27.10;10.18;;;;;;;35.89;47.68;97309.53;4937905;28;20568;-71
2023/06/19 11:31:10;;;;;;;20.63;9.40;;;;;;;35.82;46.24;97314.25;4937335;28;20043;-69
2023/06/19 11:33:39;;;;;;;18.35;9.80;;;;;;;35.75;46.77;97306.00;4935584;28;20050;-69
2023/06/19 11:36:09;;;;;;;24.27;10.02;;;;;;;35.72;47.22;97298.50;4920554;28;20726;-74
2023/06/19 11:38:40;;;;;;;27.38;12.45;;;;;;;35.64;45.44;97294.13;4939229;28;20074;-68
2023/06/19 11:41:10;;;;;;;21.77;11.27;;;;;;;35.60;44.87;97289.41;4938362;28;20147;-68
2023/06/19 11:43:40;;;;;;;13.52;10.00;;;;;;;35.59;46.85;97285.06;4926269;28;20062;-68